sensor_id;sensor_type;location;lat;lon;timestamp;P1;durP1;ratioP1;P2;durP2;ratioP2
61389;SDS011;47260;48.274;19.814;2023-04-06T00:00:53;17.42;;;11.13;;
61389;SDS011;47260;48.274;19.814;2023-04-06T00:02:25;18.90;;;11.55;;
61389;SDS011;47260;48.274;19.814;2023-04-06T00:03:55;17.95;;;11.07;;
61389;SDS011;47260;48.274;19.814;2023-04-06T00:05:27;15.98;;;10.75;;
61389;SDS011;47260;48.274;19.814;2023-04-06T00:07:00;16.58;;;10.90;;
61389;SDS011;47260;48.274;19.814;2023-04-06T00:08:31;15.25;;;11.23;;
61389;SDS011;47260;48.274;19.814;2023-04-06T00:10:03;16.92;;;11.50;;
61389;SDS011;47260;48.274;19.814;2023-04-06T00:11:36;18.15;;;10.95;;
61389;SDS011;47260;48.274;19.814;2023-04-06T00:13:07;18.48;;;10.38;;
61389;SDS011;47260;48.274;19.814;2023-04-06T00:14:41;16.73;;;11.73;;
61389;SDS011;47260;48.274;19.814;2023-04-06T00:16:11;16.13;;;10.25;;
61389;SDS011;47260;48.274;19.814;2023-04-06T00:17:43;15.52;;;10.63;;
61389;SDS011;47260;48.274;19.814;2023-04-06T00:19:14;18.02;;;10.70;;
61389;SDS011;47260;48.274;19.814;2023-04-06T00:20:46;13.30;;;10.25;;
61389;SDS011;47260;48.274;19.814;2023-04-06T00:22:17;16.67;;;10.82;;
61389;SDS011;47260;48.274;19.814;2023-04-06T00:23:48;17.75;;;11.95;;
61389;SDS011;47260;48.274;19.814;2023-04-06T00:25:19;18.70;;;11.07;;
61389;SDS011;47260;48.274;19.814;2023-04-06T00:26:51;19.65;;;12.25;;
61389;SDS011;47260;48.274;19.814;2023-04-06T00:28:23;22.58;;;10.85;;
61389;SDS011;47260;48.274;19.814;2023-04-06T00:29:57;20.45;;;11.35;;
61389;SDS011;47260;48.274;19.814;2023-04-06T00:31:28;20.40;;;11.43;;
61389;SDS011;47260;48.274;19.814;2023-04-06T00:33:00;16.92;;;11.68;;
61389;SDS011;47260;48.274;19.814;2023-04-06T00:34:32;18.95;;;11.18;;
61389;SDS011;47260;48.274;19.814;2023-04-06T00:36:03;18.00;;;11.45;;
61389;SDS011;47260;48.274;19.814;2023-04-06T00:37:35;16.25;;;11.23;;
61389;SDS011;47260;48.274;19.814;2023-04-06T00:39:06;15.52;;;11.18;;
61389;SDS011;47260;48.274;19.814;2023-04-06T00:40:38;18.88;;;11.25;;
61389;SDS011;47260;48.274;19.814;2023-04-06T00:42:10;16.88;;;11.30;;
61389;SDS011;47260;48.274;19.814;2023-04-06T00:43:43;16.35;;;11.13;;
61389;SDS011;47260;48.274;19.814;2023-04-06T00:45:17;19.73;;;11.52;;
61389;SDS011;47260;48.274;19.814;2023-04-06T00:46:48;16.23;;;10.52;;
61389;SDS011;47260;48.274;19.814;2023-04-06T00:48:21;16.35;;;10.93;;
61389;SDS011;47260;48.274;19.814;2023-04-06T00:49:52;17.60;;;11.30;;
61389;SDS011;47260;48.274;19.814;2023-04-06T00:51:24;23.48;;;12.68;;
61389;SDS011;47260;48.274;19.814;2023-04-06T00:52:56;17.55;;;11.05;;
61389;SDS011;47260;48.274;19.814;2023-04-06T00:54:30;16.65;;;11.60;;
61389;SDS011;47260;48.274;19.814;2023-04-06T00:56:04;19.60;;;11.20;;
61389;SDS011;47260;48.274;19.814;2023-04-06T00:57:48;20.60;;;11.35;;
61389;SDS011;47260;48.274;19.814;2023-04-06T00:59:20;17.23;;;12.13;;
61389;SDS011;47260;48.274;19.814;2023-04-06T01:00:53;19.75;;;12.50;;
61389;SDS011;47260;48.274;19.814;2023-04-06T01:02:27;35.58;;;20.35;;
61389;SDS011;47260;48.274;19.814;2023-04-06T01:03:59;20.75;;;12.98;;
61389;SDS011;47260;48.274;19.814;2023-04-06T01:05:30;17.80;;;12.18;;
61389;SDS011;47260;48.274;19.814;2023-04-06T01:07:05;17.73;;;12.52;;
61389;SDS011;47260;48.274;19.814;2023-04-06T01:08:45;15.77;;;12.18;;
61389;SDS011;47260;48.274;19.814;2023-04-06T01:10:28;17.73;;;11.95;;
61389;SDS011;47260;48.274;19.814;2023-04-06T01:12:10;19.30;;;11.23;;
61389;SDS011;47260;48.274;19.814;2023-04-06T01:13:42;17.75;;;11.57;;
61389;SDS011;47260;48.274;19.814;2023-04-06T01:15:32;17.13;;;11.37;;
61389;SDS011;47260;48.274;19.814;2023-04-06T01:17:11;18.95;;;11.02;;
61389;SDS011;47260;48.274;19.814;2023-04-06T01:18:43;16.80;;;10.95;;
61389;SDS011;47260;48.274;19.814;2023-04-06T01:20:22;15.35;;;10.90;;
61389;SDS011;47260;48.274;19.814;2023-04-06T01:21:54;18.88;;;11.00;;
61389;SDS011;47260;48.274;19.814;2023-04-06T01:23:36;17.38;;;10.88;;
61389;SDS011;47260;48.274;19.814;2023-04-06T01:25:08;15.40;;;10.57;;
61389;SDS011;47260;48.274;19.814;2023-04-06T01:26:59;14.38;;;11.43;;
61389;SDS011;47260;48.274;19.814;2023-04-06T01:28:39;15.60;;;10.23;;
61389;SDS011;47260;48.274;19.814;2023-04-06T01:30:25;18.00;;;10.88;;
61389;SDS011;47260;48.274;19.814;2023-04-06T01:32:04;16.42;;;11.35;;
61389;SDS011;47260;48.274;19.814;2023-04-06T01:33:41;15.50;;;11.40;;
61389;SDS011;47260;48.274;19.814;2023-04-06T01:35:17;15.98;;;10.23;;
61389;SDS011;47260;48.274;19.814;2023-04-06T01:36:59;16.33;;;10.38;;
61389;SDS011;47260;48.274;19.814;2023-04-06T01:38:34;18.23;;;10.38;;
61389;SDS011;47260;48.274;19.814;2023-04-06T01:40:08;14.55;;;10.18;;
61389;SDS011;47260;48.274;19.814;2023-04-06T01:41:48;14.27;;;9.55;;
61389;SDS011;47260;48.274;19.814;2023-04-06T01:43:22;14.85;;;10.18;;
61389;SDS011;47260;48.274;19.814;2023-04-06T01:45:12;18.85;;;10.13;;
61389;SDS011;47260;48.274;19.814;2023-04-06T01:46:44;15.65;;;10.27;;
61389;SDS011;47260;48.274;19.814;2023-04-06T01:48:21;16.83;;;10.85;;
61389;SDS011;47260;48.274;19.814;2023-04-06T01:49:52;18.33;;;11.50;;
61389;SDS011;47260;48.274;19.814;2023-04-06T01:51:24;15.75;;;9.65;;
61389;SDS011;47260;48.274;19.814;2023-04-06T01:53:00;16.08;;;11.05;;
61389;SDS011;47260;48.274;19.814;2023-04-06T01:54:33;16.27;;;10.50;;
61389;SDS011;47260;48.274;19.814;2023-04-06T01:56:19;16.17;;;10.43;;
61389;SDS011;47260;48.274;19.814;2023-04-06T01:58:03;16.00;;;10.98;;
61389;SDS011;47260;48.274;19.814;2023-04-06T01:59:39;17.38;;;10.95;;
61389;SDS011;47260;48.274;19.814;2023-04-06T02:01:19;19.58;;;11.65;;
61389;SDS011;47260;48.274;19.814;2023-04-06T02:02:57;17.15;;;11.25;;
61389;SDS011;47260;48.274;19.814;2023-04-06T02:04:30;18.27;;;11.82;;
61389;SDS011;47260;48.274;19.814;2023-04-06T02:06:12;16.75;;;11.13;;
61389;SDS011;47260;48.274;19.814;2023-04-06T02:07:45;16.90;;;10.82;;
61389;SDS011;47260;48.274;19.814;2023-04-06T02:09:20;19.35;;;11.38;;
61389;SDS011;47260;48.274;19.814;2023-04-06T02:10:52;17.08;;;10.48;;
61389;SDS011;47260;48.274;19.814;2023-04-06T02:12:34;16.88;;;11.15;;
61389;SDS011;47260;48.274;19.814;2023-04-06T02:14:07;16.05;;;10.20;;
61389;SDS011;47260;48.274;19.814;2023-04-06T02:15:44;17.48;;;11.32;;
61389;SDS011;47260;48.274;19.814;2023-04-06T02:17:16;17.00;;;10.80;;
61389;SDS011;47260;48.274;19.814;2023-04-06T02:18:48;18.35;;;10.77;;
61389;SDS011;47260;48.274;19.814;2023-04-06T02:20:20;18.40;;;11.35;;
61389;SDS011;47260;48.274;19.814;2023-04-06T02:21:51;17.83;;;11.93;;
61389;SDS011;47260;48.274;19.814;2023-04-06T02:23:23;21.52;;;13.13;;
61389;SDS011;47260;48.274;19.814;2023-04-06T02:24:55;20.75;;;12.88;;
61389;SDS011;47260;48.274;19.814;2023-04-06T02:26:26;21.55;;;13.15;;
61389;SDS011;47260;48.274;19.814;2023-04-06T02:27:59;18.45;;;12.23;;
61389;SDS011;47260;48.274;19.814;2023-04-06T02:29:33;24.55;;;12.82;;
61389;SDS011;47260;48.274;19.814;2023-04-06T02:31:04;20.20;;;12.40;;
61389;SDS011;47260;48.274;19.814;2023-04-06T02:32:36;19.95;;;11.50;;
61389;SDS011;47260;48.274;19.814;2023-04-06T02:34:08;21.10;;;12.07;;
61389;SDS011;47260;48.274;19.814;2023-04-06T02:35:44;20.95;;;12.48;;
61389;SDS011;47260;48.274;19.814;2023-04-06T02:37:16;21.67;;;11.68;;
61389;SDS011;47260;48.274;19.814;2023-04-06T02:38:47;17.73;;;12.05;;
61389;SDS011;47260;48.274;19.814;2023-04-06T02:40:18;22.23;;;13.55;;
61389;SDS011;47260;48.274;19.814;2023-04-06T02:41:50;19.92;;;12.13;;
61389;SDS011;47260;48.274;19.814;2023-04-06T02:43:27;21.23;;;12.73;;
61389;SDS011;47260;48.274;19.814;2023-04-06T02:45:20;20.08;;;12.13;;
61389;SDS011;47260;48.274;19.814;2023-04-06T02:46:52;16.55;;;11.30;;
61389;SDS011;47260;48.274;19.814;2023-04-06T02:48:24;19.15;;;11.80;;
61389;SDS011;47260;48.274;19.814;2023-04-06T02:49:57;19.38;;;11.68;;
61389;SDS011;47260;48.274;19.814;2023-04-06T02:51:28;17.13;;;11.23;;
61389;SDS011;47260;48.274;19.814;2023-04-06T02:53:09;18.83;;;12.25;;
61389;SDS011;47260;48.274;19.814;2023-04-06T02:54:43;19.73;;;13.15;;
61389;SDS011;47260;48.274;19.814;2023-04-06T02:56:15;19.85;;;12.77;;
61389;SDS011;47260;48.274;19.814;2023-04-06T02:57:51;19.48;;;12.68;;
61389;SDS011;47260;48.274;19.814;2023-04-06T02:59:28;25.90;;;14.85;;
61389;SDS011;47260;48.274;19.814;2023-04-06T03:01:20;23.63;;;15.05;;
61389;SDS011;47260;48.274;19.814;2023-04-06T03:02:58;23.13;;;13.68;;
61389;SDS011;47260;48.274;19.814;2023-04-06T03:04:31;25.73;;;14.68;;
61389;SDS011;47260;48.274;19.814;2023-04-06T03:06:04;23.17;;;14.20;;
61389;SDS011;47260;48.274;19.814;2023-04-06T03:07:36;21.50;;;13.63;;
61389;SDS011;47260;48.274;19.814;2023-04-06T03:09:07;23.25;;;13.63;;
61389;SDS011;47260;48.274;19.814;2023-04-06T03:10:39;24.00;;;14.32;;
61389;SDS011;47260;48.274;19.814;2023-04-06T03:12:11;28.63;;;15.13;;
61389;SDS011;47260;48.274;19.814;2023-04-06T03:14:03;18.58;;;12.38;;
61389;SDS011;47260;48.274;19.814;2023-04-06T03:15:36;20.75;;;13.27;;
61389;SDS011;47260;48.274;19.814;2023-04-06T03:17:16;21.38;;;13.95;;
61389;SDS011;47260;48.274;19.814;2023-04-06T03:18:49;20.98;;;13.52;;
61389;SDS011;47260;48.274;19.814;2023-04-06T03:20:20;22.08;;;12.88;;
61389;SDS011;47260;48.274;19.814;2023-04-06T03:21:52;28.33;;;15.02;;
61389;SDS011;47260;48.274;19.814;2023-04-06T03:23:25;27.80;;;15.15;;
61389;SDS011;47260;48.274;19.814;2023-04-06T03:25:01;28.73;;;15.90;;
61389;SDS011;47260;48.274;19.814;2023-04-06T03:26:35;31.35;;;15.45;;
61389;SDS011;47260;48.274;19.814;2023-04-06T03:28:10;27.65;;;15.65;;
61389;SDS011;47260;48.274;19.814;2023-04-06T03:29:52;26.33;;;16.45;;
61389;SDS011;47260;48.274;19.814;2023-04-06T03:31:32;28.17;;;15.43;;
61389;SDS011;47260;48.274;19.814;2023-04-06T03:33:24;28.05;;;16.02;;
61389;SDS011;47260;48.274;19.814;2023-04-06T03:34:58;30.38;;;15.13;;
61389;SDS011;47260;48.274;19.814;2023-04-06T03:36:30;30.42;;;16.95;;
61389;SDS011;47260;48.274;19.814;2023-04-06T03:38:03;31.98;;;16.65;;
61389;SDS011;47260;48.274;19.814;2023-04-06T03:39:35;26.45;;;15.82;;
61389;SDS011;47260;48.274;19.814;2023-04-06T03:41:08;24.08;;;15.30;;
61389;SDS011;47260;48.274;19.814;2023-04-06T03:42:39;27.85;;;15.48;;
61389;SDS011;47260;48.274;19.814;2023-04-06T03:44:16;28.42;;;15.38;;
61389;SDS011;47260;48.274;19.814;2023-04-06T03:45:48;31.30;;;17.17;;
61389;SDS011;47260;48.274;19.814;2023-04-06T03:47:21;27.42;;;16.02;;
61389;SDS011;47260;48.274;19.814;2023-04-06T03:48:54;25.70;;;15.15;;
61389;SDS011;47260;48.274;19.814;2023-04-06T03:50:27;28.13;;;15.02;;
61389;SDS011;47260;48.274;19.814;2023-04-06T03:52:00;30.95;;;16.33;;
61389;SDS011;47260;48.274;19.814;2023-04-06T03:53:33;22.88;;;14.00;;
61389;SDS011;47260;48.274;19.814;2023-04-06T03:55:07;26.60;;;15.25;;
61389;SDS011;47260;48.274;19.814;2023-04-06T03:56:40;27.33;;;15.93;;
61389;SDS011;47260;48.274;19.814;2023-04-06T03:58:12;28.42;;;15.73;;
61389;SDS011;47260;48.274;19.814;2023-04-06T03:59:43;25.23;;;15.20;;
61389;SDS011;47260;48.274;19.814;2023-04-06T04:01:15;24.67;;;15.25;;
61389;SDS011;47260;48.274;19.814;2023-04-06T04:02:48;25.15;;;14.68;;
61389;SDS011;47260;48.274;19.814;2023-04-06T04:04:20;27.77;;;16.20;;
61389;SDS011;47260;48.274;19.814;2023-04-06T04:05:51;29.25;;;15.55;;
61389;SDS011;47260;48.274;19.814;2023-04-06T04:07:24;23.83;;;15.82;;
61389;SDS011;47260;48.274;19.814;2023-04-06T04:08:55;25.73;;;14.93;;
61389;SDS011;47260;48.274;19.814;2023-04-06T04:10:26;30.05;;;15.77;;
61389;SDS011;47260;48.274;19.814;2023-04-06T04:11:58;26.77;;;14.77;;
61389;SDS011;47260;48.274;19.814;2023-04-06T04:13:30;24.30;;;13.85;;
61389;SDS011;47260;48.274;19.814;2023-04-06T04:15:02;26.77;;;16.00;;
61389;SDS011;47260;48.274;19.814;2023-04-06T04:16:34;25.98;;;15.43;;
61389;SDS011;47260;48.274;19.814;2023-04-06T04:18:08;31.08;;;17.65;;
61389;SDS011;47260;48.274;19.814;2023-04-06T04:19:39;28.73;;;16.70;;
61389;SDS011;47260;48.274;19.814;2023-04-06T04:21:11;26.15;;;15.52;;
61389;SDS011;47260;48.274;19.814;2023-04-06T04:22:43;29.05;;;15.32;;
61389;SDS011;47260;48.274;19.814;2023-04-06T04:24:14;43.53;;;19.45;;
61389;SDS011;47260;48.274;19.814;2023-04-06T04:25:46;43.30;;;19.48;;
61389;SDS011;47260;48.274;19.814;2023-04-06T04:27:18;47.35;;;20.10;;
61389;SDS011;47260;48.274;19.814;2023-04-06T04:28:51;41.17;;;20.10;;
61389;SDS011;47260;48.274;19.814;2023-04-06T04:30:23;36.30;;;19.60;;
61389;SDS011;47260;48.274;19.814;2023-04-06T04:31:55;34.17;;;20.83;;
61389;SDS011;47260;48.274;19.814;2023-04-06T04:33:28;48.10;;;22.67;;
61389;SDS011;47260;48.274;19.814;2023-04-06T04:35:02;39.95;;;21.08;;
61389;SDS011;47260;48.274;19.814;2023-04-06T04:36:39;38.03;;;21.45;;
61389;SDS011;47260;48.274;19.814;2023-04-06T04:38:14;40.20;;;21.17;;
61389;SDS011;47260;48.274;19.814;2023-04-06T04:39:48;36.90;;;20.83;;
61389;SDS011;47260;48.274;19.814;2023-04-06T04:41:20;40.00;;;20.70;;
61389;SDS011;47260;48.274;19.814;2023-04-06T04:42:53;44.15;;;23.25;;
61389;SDS011;47260;48.274;19.814;2023-04-06T04:44:30;42.10;;;21.40;;
61389;SDS011;47260;48.274;19.814;2023-04-06T04:46:03;37.65;;;22.27;;
61389;SDS011;47260;48.274;19.814;2023-04-06T04:47:43;40.80;;;23.33;;
61389;SDS011;47260;48.274;19.814;2023-04-06T04:49:18;41.00;;;22.23;;
61389;SDS011;47260;48.274;19.814;2023-04-06T04:50:54;41.47;;;23.02;;
61389;SDS011;47260;48.274;19.814;2023-04-06T04:52:29;43.03;;;23.70;;
61389;SDS011;47260;48.274;19.814;2023-04-06T04:54:15;38.92;;;22.48;;
61389;SDS011;47260;48.274;19.814;2023-04-06T04:55:47;35.45;;;21.58;;
61389;SDS011;47260;48.274;19.814;2023-04-06T04:57:19;31.88;;;21.38;;
61389;SDS011;47260;48.274;19.814;2023-04-06T04:58:52;38.88;;;20.88;;
61389;SDS011;47260;48.274;19.814;2023-04-06T05:00:24;36.22;;;20.33;;
61389;SDS011;47260;48.274;19.814;2023-04-06T05:02:00;30.60;;;18.67;;
61389;SDS011;47260;48.274;19.814;2023-04-06T05:03:42;40.22;;;20.15;;
61389;SDS011;47260;48.274;19.814;2023-04-06T05:05:20;35.50;;;19.45;;
61389;SDS011;47260;48.274;19.814;2023-04-06T05:07:01;33.13;;;19.17;;
61389;SDS011;47260;48.274;19.814;2023-04-06T05:10:07;31.17;;;18.25;;
61389;SDS011;47260;48.274;19.814;2023-04-06T05:11:45;35.38;;;18.85;;
61389;SDS011;47260;48.274;19.814;2023-04-06T05:13:17;36.00;;;21.17;;
61389;SDS011;47260;48.274;19.814;2023-04-06T05:14:51;33.40;;;20.58;;
61389;SDS011;47260;48.274;19.814;2023-04-06T05:16:24;35.85;;;22.10;;
61389;SDS011;47260;48.274;19.814;2023-04-06T05:17:56;31.80;;;20.17;;
61389;SDS011;47260;48.274;19.814;2023-04-06T05:19:35;36.33;;;19.83;;
61389;SDS011;47260;48.274;19.814;2023-04-06T05:21:08;28.45;;;17.80;;
61389;SDS011;47260;48.274;19.814;2023-04-06T05:22:53;31.70;;;17.15;;
61389;SDS011;47260;48.274;19.814;2023-04-06T05:24:25;27.60;;;16.85;;
61389;SDS011;47260;48.274;19.814;2023-04-06T05:25:58;36.92;;;17.50;;
61389;SDS011;47260;48.274;19.814;2023-04-06T05:27:30;27.75;;;16.15;;
61389;SDS011;47260;48.274;19.814;2023-04-06T05:29:05;21.55;;;15.40;;
61389;SDS011;47260;48.274;19.814;2023-04-06T05:30:40;31.10;;;16.17;;
61389;SDS011;47260;48.274;19.814;2023-04-06T05:32:13;28.08;;;16.30;;
61389;SDS011;47260;48.274;19.814;2023-04-06T05:33:45;25.45;;;16.00;;
61389;SDS011;47260;48.274;19.814;2023-04-06T05:35:20;24.45;;;15.80;;
61389;SDS011;47260;48.274;19.814;2023-04-06T05:36:56;26.20;;;16.27;;
61389;SDS011;47260;48.274;19.814;2023-04-06T05:38:29;27.17;;;17.25;;
61389;SDS011;47260;48.274;19.814;2023-04-06T05:40:12;27.80;;;17.75;;
61389;SDS011;47260;48.274;19.814;2023-04-06T05:41:44;26.48;;;17.15;;
61389;SDS011;47260;48.274;19.814;2023-04-06T05:43:17;26.85;;;18.55;;
61389;SDS011;47260;48.274;19.814;2023-04-06T05:44:55;29.45;;;18.15;;
61389;SDS011;47260;48.274;19.814;2023-04-06T05:46:27;35.10;;;18.73;;
61389;SDS011;47260;48.274;19.814;2023-04-06T05:48:02;30.80;;;17.52;;
61389;SDS011;47260;48.274;19.814;2023-04-06T05:49:34;26.92;;;19.10;;
61389;SDS011;47260;48.274;19.814;2023-04-06T05:51:08;31.63;;;19.48;;
61389;SDS011;47260;48.274;19.814;2023-04-06T05:52:50;38.80;;;21.33;;
61389;SDS011;47260;48.274;19.814;2023-04-06T05:54:25;33.38;;;21.13;;
61389;SDS011;47260;48.274;19.814;2023-04-06T05:56:02;37.22;;;20.15;;
61389;SDS011;47260;48.274;19.814;2023-04-06T05:57:35;29.42;;;19.48;;
61389;SDS011;47260;48.274;19.814;2023-04-06T05:59:07;32.78;;;18.92;;
61389;SDS011;47260;48.274;19.814;2023-04-06T06:00:39;30.08;;;17.92;;
61389;SDS011;47260;48.274;19.814;2023-04-06T06:02:13;27.80;;;16.67;;
61389;SDS011;47260;48.274;19.814;2023-04-06T06:03:48;28.17;;;17.67;;
61389;SDS011;47260;48.274;19.814;2023-04-06T06:05:20;25.42;;;16.20;;
61389;SDS011;47260;48.274;19.814;2023-04-06T06:06:54;26.38;;;15.70;;
61389;SDS011;47260;48.274;19.814;2023-04-06T06:08:36;27.30;;;16.80;;
61389;SDS011;47260;48.274;19.814;2023-04-06T06:10:15;26.77;;;17.83;;
61389;SDS011;47260;48.274;19.814;2023-04-06T06:11:47;27.45;;;18.10;;
61389;SDS011;47260;48.274;19.814;2023-04-06T06:13:21;28.88;;;18.05;;
61389;SDS011;47260;48.274;19.814;2023-04-06T06:14:54;25.02;;;17.17;;
61389;SDS011;47260;48.274;19.814;2023-04-06T06:16:28;31.10;;;18.73;;
61389;SDS011;47260;48.274;19.814;2023-04-06T06:18:00;28.80;;;18.15;;
61389;SDS011;47260;48.274;19.814;2023-04-06T06:19:33;27.58;;;18.67;;
61389;SDS011;47260;48.274;19.814;2023-04-06T06:21:08;25.88;;;16.80;;
61389;SDS011;47260;48.274;19.814;2023-04-06T06:22:42;23.30;;;16.00;;
61389;SDS011;47260;48.274;19.814;2023-04-06T06:24:20;23.10;;;15.95;;
61389;SDS011;47260;48.274;19.814;2023-04-06T06:25:52;23.00;;;15.77;;
61389;SDS011;47260;48.274;19.814;2023-04-06T06:27:27;30.58;;;22.00;;
61389;SDS011;47260;48.274;19.814;2023-04-06T06:28:59;30.08;;;19.48;;
61389;SDS011;47260;48.274;19.814;2023-04-06T06:30:31;24.50;;;16.23;;
61389;SDS011;47260;48.274;19.814;2023-04-06T06:32:03;28.10;;;15.60;;
61389;SDS011;47260;48.274;19.814;2023-04-06T06:33:36;26.45;;;15.98;;
61389;SDS011;47260;48.274;19.814;2023-04-06T06:35:08;22.00;;;15.95;;
61389;SDS011;47260;48.274;19.814;2023-04-06T06:36:40;22.65;;;14.80;;
61389;SDS011;47260;48.274;19.814;2023-04-06T06:38:15;21.80;;;16.00;;
61389;SDS011;47260;48.274;19.814;2023-04-06T06:39:48;20.85;;;14.88;;
61389;SDS011;47260;48.274;19.814;2023-04-06T06:41:20;23.88;;;14.68;;
61389;SDS011;47260;48.274;19.814;2023-04-06T06:42:53;21.85;;;13.85;;
61389;SDS011;47260;48.274;19.814;2023-04-06T06:44:31;23.95;;;14.18;;
61389;SDS011;47260;48.274;19.814;2023-04-06T06:46:03;20.48;;;14.63;;
61389;SDS011;47260;48.274;19.814;2023-04-06T06:47:35;25.02;;;15.70;;
61389;SDS011;47260;48.274;19.814;2023-04-06T06:49:07;22.65;;;14.82;;
61389;SDS011;47260;48.274;19.814;2023-04-06T06:50:39;22.98;;;15.10;;
61389;SDS011;47260;48.274;19.814;2023-04-06T06:52:10;26.33;;;15.20;;
61389;SDS011;47260;48.274;19.814;2023-04-06T06:53:42;26.10;;;16.42;;
61389;SDS011;47260;48.274;19.814;2023-04-06T06:55:16;20.80;;;14.55;;
61389;SDS011;47260;48.274;19.814;2023-04-06T06:56:49;22.25;;;14.68;;
61389;SDS011;47260;48.274;19.814;2023-04-06T06:58:21;22.38;;;14.18;;
61389;SDS011;47260;48.274;19.814;2023-04-06T06:59:53;20.65;;;15.00;;
61389;SDS011;47260;48.274;19.814;2023-04-06T07:01:25;29.42;;;17.02;;
61389;SDS011;47260;48.274;19.814;2023-04-06T07:02:59;24.52;;;15.88;;
61389;SDS011;47260;48.274;19.814;2023-04-06T07:04:30;26.27;;;17.58;;
61389;SDS011;47260;48.274;19.814;2023-04-06T07:06:02;25.88;;;17.58;;
61389;SDS011;47260;48.274;19.814;2023-04-06T07:07:35;25.15;;;17.85;;
61389;SDS011;47260;48.274;19.814;2023-04-06T07:09:07;28.77;;;18.65;;
61389;SDS011;47260;48.274;19.814;2023-04-06T07:10:40;27.55;;;18.08;;
61389;SDS011;47260;48.274;19.814;2023-04-06T07:12:12;30.70;;;19.13;;
61389;SDS011;47260;48.274;19.814;2023-04-06T07:13:44;23.50;;;18.00;;
61389;SDS011;47260;48.274;19.814;2023-04-06T07:15:16;28.77;;;18.75;;
61389;SDS011;47260;48.274;19.814;2023-04-06T07:16:48;36.28;;;22.92;;
61389;SDS011;47260;48.274;19.814;2023-04-06T07:18:21;38.35;;;23.80;;
61389;SDS011;47260;48.274;19.814;2023-04-06T07:19:54;32.38;;;21.70;;
61389;SDS011;47260;48.274;19.814;2023-04-06T07:21:25;25.98;;;18.27;;
61389;SDS011;47260;48.274;19.814;2023-04-06T07:22:57;35.35;;;22.48;;
61389;SDS011;47260;48.274;19.814;2023-04-06T07:24:29;36.15;;;23.85;;
61389;SDS011;47260;48.274;19.814;2023-04-06T07:26:02;40.15;;;25.35;;
61389;SDS011;47260;48.274;19.814;2023-04-06T07:27:34;44.38;;;25.45;;
61389;SDS011;47260;48.274;19.814;2023-04-06T07:29:06;33.38;;;22.25;;
61389;SDS011;47260;48.274;19.814;2023-04-06T07:30:38;33.72;;;20.70;;
61389;SDS011;47260;48.274;19.814;2023-04-06T07:32:14;30.88;;;19.70;;
61389;SDS011;47260;48.274;19.814;2023-04-06T07:33:46;23.70;;;15.48;;
61389;SDS011;47260;48.274;19.814;2023-04-06T07:35:18;24.92;;;15.88;;
61389;SDS011;47260;48.274;19.814;2023-04-06T07:36:50;25.75;;;15.50;;
61389;SDS011;47260;48.274;19.814;2023-04-06T07:38:24;23.15;;;16.52;;
61389;SDS011;47260;48.274;19.814;2023-04-06T07:39:56;23.80;;;15.93;;
61389;SDS011;47260;48.274;19.814;2023-04-06T07:41:30;23.17;;;14.48;;
61389;SDS011;47260;48.274;19.814;2023-04-06T07:43:02;24.67;;;16.45;;
61389;SDS011;47260;48.274;19.814;2023-04-06T07:44:34;28.45;;;18.83;;
61389;SDS011;47260;48.274;19.814;2023-04-06T07:46:06;30.48;;;18.75;;
61389;SDS011;47260;48.274;19.814;2023-04-06T07:47:38;33.65;;;19.85;;
61389;SDS011;47260;48.274;19.814;2023-04-06T07:49:11;26.88;;;17.40;;
61389;SDS011;47260;48.274;19.814;2023-04-06T07:50:43;27.58;;;16.80;;
61389;SDS011;47260;48.274;19.814;2023-04-06T07:52:15;23.17;;;15.55;;
61389;SDS011;47260;48.274;19.814;2023-04-06T07:53:47;30.15;;;15.40;;
61389;SDS011;47260;48.274;19.814;2023-04-06T07:55:19;22.08;;;14.20;;
61389;SDS011;47260;48.274;19.814;2023-04-06T07:56:52;25.17;;;17.42;;
61389;SDS011;47260;48.274;19.814;2023-04-06T07:58:24;22.33;;;14.75;;
61389;SDS011;47260;48.274;19.814;2023-04-06T07:59:56;19.48;;;14.80;;
61389;SDS011;47260;48.274;19.814;2023-04-06T08:01:28;24.50;;;15.70;;
61389;SDS011;47260;48.274;19.814;2023-04-06T08:03:00;26.77;;;15.70;;
61389;SDS011;47260;48.274;19.814;2023-04-06T08:04:32;20.75;;;14.35;;
61389;SDS011;47260;48.274;19.814;2023-04-06T08:06:04;20.15;;;14.85;;
61389;SDS011;47260;48.274;19.814;2023-04-06T08:07:36;19.33;;;14.57;;
61389;SDS011;47260;48.274;19.814;2023-04-06T08:09:08;18.10;;;12.43;;
61389;SDS011;47260;48.274;19.814;2023-04-06T08:10:40;20.88;;;13.70;;
61389;SDS011;47260;48.274;19.814;2023-04-06T08:12:13;18.20;;;13.20;;
61389;SDS011;47260;48.274;19.814;2023-04-06T08:13:45;19.00;;;12.35;;
61389;SDS011;47260;48.274;19.814;2023-04-06T08:15:17;15.27;;;10.63;;
61389;SDS011;47260;48.274;19.814;2023-04-06T08:16:49;14.45;;;10.57;;
61389;SDS011;47260;48.274;19.814;2023-04-06T08:18:21;17.42;;;10.77;;
61389;SDS011;47260;48.274;19.814;2023-04-06T08:19:53;18.17;;;10.80;;
61389;SDS011;47260;48.274;19.814;2023-04-06T08:21:24;17.35;;;10.63;;
61389;SDS011;47260;48.274;19.814;2023-04-06T08:22:56;20.10;;;11.80;;
61389;SDS011;47260;48.274;19.814;2023-04-06T08:24:28;17.80;;;11.40;;
61389;SDS011;47260;48.274;19.814;2023-04-06T08:26:02;14.05;;;10.20;;
61389;SDS011;47260;48.274;19.814;2023-04-06T08:27:35;22.90;;;15.57;;
61389;SDS011;47260;48.274;19.814;2023-04-06T08:29:07;17.02;;;12.38;;
61389;SDS011;47260;48.274;19.814;2023-04-06T08:30:39;14.85;;;11.55;;
61389;SDS011;47260;48.274;19.814;2023-04-06T08:32:11;16.60;;;11.40;;
61389;SDS011;47260;48.274;19.814;2023-04-06T08:33:43;16.38;;;11.00;;
61389;SDS011;47260;48.274;19.814;2023-04-06T08:35:16;17.77;;;11.48;;
61389;SDS011;47260;48.274;19.814;2023-04-06T08:36:48;17.48;;;11.52;;
61389;SDS011;47260;48.274;19.814;2023-04-06T08:38:20;17.80;;;12.05;;
61389;SDS011;47260;48.274;19.814;2023-04-06T08:39:52;13.98;;;11.32;;
61389;SDS011;47260;48.274;19.814;2023-04-06T08:41:24;18.58;;;11.93;;
61389;SDS011;47260;48.274;19.814;2023-04-06T08:42:57;16.00;;;12.10;;
61389;SDS011;47260;48.274;19.814;2023-04-06T08:44:34;21.75;;;13.80;;
61389;SDS011;47260;48.274;19.814;2023-04-06T08:46:07;20.10;;;12.43;;
61389;SDS011;47260;48.274;19.814;2023-04-06T08:47:40;16.27;;;11.52;;
61389;SDS011;47260;48.274;19.814;2023-04-06T08:49:12;16.45;;;10.30;;
61389;SDS011;47260;48.274;19.814;2023-04-06T08:50:47;13.75;;;10.32;;
61389;SDS011;47260;48.274;19.814;2023-04-06T08:52:19;13.27;;;9.52;;
61389;SDS011;47260;48.274;19.814;2023-04-06T08:53:51;13.32;;;9.63;;
61389;SDS011;47260;48.274;19.814;2023-04-06T08:55:24;15.70;;;9.43;;
61389;SDS011;47260;48.274;19.814;2023-04-06T08:56:56;13.98;;;9.68;;
61389;SDS011;47260;48.274;19.814;2023-04-06T08:58:32;14.00;;;10.02;;
61389;SDS011;47260;48.274;19.814;2023-04-06T09:00:06;12.13;;;9.57;;
61389;SDS011;47260;48.274;19.814;2023-04-06T09:01:40;21.25;;;12.75;;
61389;SDS011;47260;48.274;19.814;2023-04-06T09:03:15;21.25;;;13.30;;